Forside
METAR-TAF:

METAR-TAF

Lufthavne :

Tokyo Heliport, Japan

Breddekreds: 35-38N, længdekreds: 139-51E, højde: 5 m

Aktuelle vejr

Denne rapport blev lavet for 43 minutter siden, kl. 07:00 UTC
Vind 6 kt fra sydsydøst
Temperatur 11°C
Fugtighed 58%
Tryk 1015 hPa
Sigt 10 km eller mere
Nogle få skyer i en højde af 2500 ft
Brudte skyer i en højde af 5000 ft
Brudte skyer i en højde af 10000 ft

METAR: RJTI 290700Z 16006KT 9999 FEW025 BKN050 BKN100 11/03 Q1015

Tid: 16:43 (07:43 UTC)


TAF: fraværende

Vejrobservationer og prognoser fra mere end 4000 lufthavne (METAR og TAF).

De gule og røde prikker repræsenterer de meteorologiske stationer.

Flyt musen over at se navnet på stationen.

Så klik over at se vejr observationer og prognoser.

At skifte det kort: Klik på de grønne knapper med et sort kors for at zoome ind; på den grønne knap med en bindestreg for at zoome ud; eller på de grønne pile for tilstødende kort.


METAR-TAF: